sensor_id;sensor_type;location;lat;lon;timestamp;P1;durP1;ratioP1;P2;durP2;ratioP2
52104;SDS011;38103;42.776;23.112;2023-09-12T00:02:05;12.63;;;5.00;;
52104;SDS011;38103;42.776;23.112;2023-09-12T00:04:30;16.35;;;6.03;;
52104;SDS011;38103;42.776;23.112;2023-09-12T00:06:55;12.60;;;5.32;;
52104;SDS011;38103;42.776;23.112;2023-09-12T00:09:21;16.20;;;5.85;;
52104;SDS011;38103;42.776;23.112;2023-09-12T00:11:46;15.30;;;5.57;;
52104;SDS011;38103;42.776;23.112;2023-09-12T00:14:16;10.27;;;4.90;;
52104;SDS011;38103;42.776;23.112;2023-09-12T00:16:42;17.50;;;5.57;;
52104;SDS011;38103;42.776;23.112;2023-09-12T00:19:08;13.30;;;5.63;;
52104;SDS011;38103;42.776;23.112;2023-09-12T00:21:33;14.82;;;5.30;;
52104;SDS011;38103;42.776;23.112;2023-09-12T00:23:58;13.65;;;5.70;;
52104;SDS011;38103;42.776;23.112;2023-09-12T00:26:24;13.32;;;5.53;;
52104;SDS011;38103;42.776;23.112;2023-09-12T00:28:49;14.48;;;5.78;;
52104;SDS011;38103;42.776;23.112;2023-09-12T00:31:15;14.52;;;5.60;;
52104;SDS011;38103;42.776;23.112;2023-09-12T00:33:40;18.02;;;5.93;;
52104;SDS011;38103;42.776;23.112;2023-09-12T00:36:05;17.13;;;5.95;;
52104;SDS011;38103;42.776;23.112;2023-09-12T00:38:31;14.02;;;5.85;;
52104;SDS011;38103;42.776;23.112;2023-09-12T00:40:56;13.23;;;5.43;;
52104;SDS011;38103;42.776;23.112;2023-09-12T00:43:21;14.60;;;5.40;;
52104;SDS011;38103;42.776;23.112;2023-09-12T00:45:47;13.05;;;5.32;;
52104;SDS011;38103;42.776;23.112;2023-09-12T00:48:12;13.57;;;5.38;;
52104;SDS011;38103;42.776;23.112;2023-09-12T00:50:39;13.00;;;5.45;;
52104;SDS011;38103;42.776;23.112;2023-09-12T00:53:06;12.60;;;5.15;;
52104;SDS011;38103;42.776;23.112;2023-09-12T00:55:32;13.63;;;5.97;;
52104;SDS011;38103;42.776;23.112;2023-09-12T00:58:02;13.20;;;5.95;;
52104;SDS011;38103;42.776;23.112;2023-09-12T01:00:28;13.63;;;5.80;;
52104;SDS011;38103;42.776;23.112;2023-09-12T01:02:53;13.98;;;6.15;;
52104;SDS011;38103;42.776;23.112;2023-09-12T01:05:19;18.33;;;6.20;;
52104;SDS011;38103;42.776;23.112;2023-09-12T01:07:47;13.95;;;6.10;;
52104;SDS011;38103;42.776;23.112;2023-09-12T01:10:12;14.95;;;5.95;;
52104;SDS011;38103;42.776;23.112;2023-09-12T01:12:38;13.98;;;5.32;;
52104;SDS011;38103;42.776;23.112;2023-09-12T01:15:04;13.93;;;6.03;;
52104;SDS011;38103;42.776;23.112;2023-09-12T01:17:33;15.18;;;6.20;;
52104;SDS011;38103;42.776;23.112;2023-09-12T01:19:59;15.00;;;5.43;;
52104;SDS011;38103;42.776;23.112;2023-09-12T01:28:07;13.73;;;5.70;;
52104;SDS011;38103;42.776;23.112;2023-09-12T01:30:35;13.35;;;5.90;;
52104;SDS011;38103;42.776;23.112;2023-09-12T01:33:01;12.20;;;6.05;;
52104;SDS011;38103;42.776;23.112;2023-09-12T01:35:27;13.43;;;6.28;;
52104;SDS011;38103;42.776;23.112;2023-09-12T01:37:53;12.35;;;5.78;;
52104;SDS011;38103;42.776;23.112;2023-09-12T01:40:21;11.93;;;5.65;;
52104;SDS011;38103;42.776;23.112;2023-09-12T01:42:58;15.32;;;5.88;;
52104;SDS011;38103;42.776;23.112;2023-09-12T01:45:25;15.45;;;6.53;;
52104;SDS011;38103;42.776;23.112;2023-09-12T01:47:52;13.35;;;6.20;;
52104;SDS011;38103;42.776;23.112;2023-09-12T01:50:18;16.15;;;6.50;;
52104;SDS011;38103;42.776;23.112;2023-09-12T01:52:45;12.75;;;5.80;;
52104;SDS011;38103;42.776;23.112;2023-09-12T01:55:11;15.70;;;6.20;;
52104;SDS011;38103;42.776;23.112;2023-09-12T01:57:39;14.48;;;6.30;;
52104;SDS011;38103;42.776;23.112;2023-09-12T02:00:06;15.07;;;6.32;;
52104;SDS011;38103;42.776;23.112;2023-09-12T02:02:32;14.50;;;6.10;;
52104;SDS011;38103;42.776;23.112;2023-09-12T02:05:20;15.65;;;6.10;;
52104;SDS011;38103;42.776;23.112;2023-09-12T02:07:47;17.98;;;6.68;;
52104;SDS011;38103;42.776;23.112;2023-09-12T02:10:13;16.85;;;6.80;;
52104;SDS011;38103;42.776;23.112;2023-09-12T02:12:39;15.70;;;6.60;;
52104;SDS011;38103;42.776;23.112;2023-09-12T02:15:05;16.30;;;7.00;;
52104;SDS011;38103;42.776;23.112;2023-09-12T02:17:30;15.32;;;6.30;;
52104;SDS011;38103;42.776;23.112;2023-09-12T02:19:56;14.73;;;6.47;;
52104;SDS011;38103;42.776;23.112;2023-09-12T02:22:21;14.07;;;6.72;;
52104;SDS011;38103;42.776;23.112;2023-09-12T02:24:47;13.30;;;6.60;;
52104;SDS011;38103;42.776;23.112;2023-09-12T02:27:12;18.30;;;7.00;;
52104;SDS011;38103;42.776;23.112;2023-09-12T02:29:40;13.75;;;6.22;;
52104;SDS011;38103;42.776;23.112;2023-09-12T02:32:07;20.73;;;7.20;;
52104;SDS011;38103;42.776;23.112;2023-09-12T02:34:33;14.98;;;7.40;;
52104;SDS011;38103;42.776;23.112;2023-09-12T02:36:58;14.63;;;6.82;;
52104;SDS011;38103;42.776;23.112;2023-09-12T02:39:24;15.70;;;7.07;;
52104;SDS011;38103;42.776;23.112;2023-09-12T02:41:49;14.43;;;6.93;;
52104;SDS011;38103;42.776;23.112;2023-09-12T02:44:14;13.00;;;6.75;;
52104;SDS011;38103;42.776;23.112;2023-09-12T02:46:40;14.93;;;6.90;;
52104;SDS011;38103;42.776;23.112;2023-09-12T02:49:06;12.60;;;6.80;;
52104;SDS011;38103;42.776;23.112;2023-09-12T02:51:31;12.70;;;6.30;;
52104;SDS011;38103;42.776;23.112;2023-09-12T02:53:57;14.90;;;6.75;;
52104;SDS011;38103;42.776;23.112;2023-09-12T02:56:22;13.80;;;6.50;;
52104;SDS011;38103;42.776;23.112;2023-09-12T02:58:48;16.65;;;6.82;;
52104;SDS011;38103;42.776;23.112;2023-09-12T03:01:14;15.02;;;6.57;;
52104;SDS011;38103;42.776;23.112;2023-09-12T03:03:43;15.45;;;7.07;;
52104;SDS011;38103;42.776;23.112;2023-09-12T03:06:11;12.82;;;6.57;;
52104;SDS011;38103;42.776;23.112;2023-09-12T03:08:37;13.00;;;6.20;;
52104;SDS011;38103;42.776;23.112;2023-09-12T03:11:03;13.52;;;6.25;;
52104;SDS011;38103;42.776;23.112;2023-09-12T03:13:28;13.95;;;6.25;;
52104;SDS011;38103;42.776;23.112;2023-09-12T03:15:54;15.77;;;6.82;;
52104;SDS011;38103;42.776;23.112;2023-09-12T03:18:19;14.38;;;6.30;;
52104;SDS011;38103;42.776;23.112;2023-09-12T03:20:44;15.63;;;6.47;;
52104;SDS011;38103;42.776;23.112;2023-09-12T03:23:10;14.23;;;6.40;;
52104;SDS011;38103;42.776;23.112;2023-09-12T03:25:36;12.80;;;6.00;;
52104;SDS011;38103;42.776;23.112;2023-09-12T03:28:03;16.20;;;6.43;;
52104;SDS011;38103;42.776;23.112;2023-09-12T03:30:29;15.32;;;6.90;;
52104;SDS011;38103;42.776;23.112;2023-09-12T03:32:55;14.25;;;6.25;;
52104;SDS011;38103;42.776;23.112;2023-09-12T03:35:20;13.73;;;6.40;;
52104;SDS011;38103;42.776;23.112;2023-09-12T03:37:45;16.73;;;6.85;;
52104;SDS011;38103;42.776;23.112;2023-09-12T03:40:11;12.77;;;6.40;;
52104;SDS011;38103;42.776;23.112;2023-09-12T03:42:36;14.38;;;5.88;;
52104;SDS011;38103;42.776;23.112;2023-09-12T03:45:02;16.10;;;6.90;;
52104;SDS011;38103;42.776;23.112;2023-09-12T03:47:28;12.93;;;6.10;;
52104;SDS011;38103;42.776;23.112;2023-09-12T03:49:53;14.77;;;5.90;;
52104;SDS011;38103;42.776;23.112;2023-09-12T03:52:19;15.00;;;5.93;;
52104;SDS011;38103;42.776;23.112;2023-09-12T03:54:44;16.98;;;6.70;;
52104;SDS011;38103;42.776;23.112;2023-09-12T03:57:10;15.07;;;6.40;;
52104;SDS011;38103;42.776;23.112;2023-09-12T03:59:35;11.93;;;6.15;;
52104;SDS011;38103;42.776;23.112;2023-09-12T04:02:01;12.90;;;6.15;;
52104;SDS011;38103;42.776;23.112;2023-09-12T04:04:28;12.43;;;5.72;;
52104;SDS011;38103;42.776;23.112;2023-09-12T04:06:53;11.57;;;5.95;;
52104;SDS011;38103;42.776;23.112;2023-09-12T04:09:19;13.20;;;6.28;;
52104;SDS011;38103;42.776;23.112;2023-09-12T04:11:45;13.82;;;5.85;;
52104;SDS011;38103;42.776;23.112;2023-09-12T04:14:10;14.98;;;6.13;;
52104;SDS011;38103;42.776;23.112;2023-09-12T04:16:36;12.18;;;5.82;;
52104;SDS011;38103;42.776;23.112;2023-09-12T04:19:01;13.20;;;5.93;;
52104;SDS011;38103;42.776;23.112;2023-09-12T04:21:27;12.38;;;5.75;;
52104;SDS011;38103;42.776;23.112;2023-09-12T04:23:52;12.25;;;5.93;;
52104;SDS011;38103;42.776;23.112;2023-09-12T04:26:17;13.88;;;5.90;;
52104;SDS011;38103;42.776;23.112;2023-09-12T04:28:43;14.63;;;6.07;;
52104;SDS011;38103;42.776;23.112;2023-09-12T04:31:08;11.73;;;5.80;;
52104;SDS011;38103;42.776;23.112;2023-09-12T04:33:34;14.70;;;5.53;;
52104;SDS011;38103;42.776;23.112;2023-09-12T04:36:02;12.95;;;5.82;;
52104;SDS011;38103;42.776;23.112;2023-09-12T04:38:28;13.98;;;5.93;;
52104;SDS011;38103;42.776;23.112;2023-09-12T04:40:54;13.73;;;5.40;;
52104;SDS011;38103;42.776;23.112;2023-09-12T04:43:20;14.95;;;5.47;;
52104;SDS011;38103;42.776;23.112;2023-09-12T04:45:46;14.00;;;5.70;;
52104;SDS011;38103;42.776;23.112;2023-09-12T04:48:11;12.63;;;5.82;;
52104;SDS011;38103;42.776;23.112;2023-09-12T04:50:43;13.20;;;5.90;;
52104;SDS011;38103;42.776;23.112;2023-09-12T04:53:08;16.83;;;5.93;;
52104;SDS011;38103;42.776;23.112;2023-09-12T04:55:37;19.45;;;6.15;;
52104;SDS011;38103;42.776;23.112;2023-09-12T04:58:03;16.00;;;5.70;;
52104;SDS011;38103;42.776;23.112;2023-09-12T05:00:29;15.43;;;5.53;;
52104;SDS011;38103;42.776;23.112;2023-09-12T05:02:55;12.32;;;5.55;;
52104;SDS011;38103;42.776;23.112;2023-09-12T05:05:20;14.55;;;5.75;;
52104;SDS011;38103;42.776;23.112;2023-09-12T05:07:45;12.07;;;5.10;;
52104;SDS011;38103;42.776;23.112;2023-09-12T05:10:11;13.02;;;4.80;;
52104;SDS011;38103;42.776;23.112;2023-09-12T05:12:37;11.95;;;4.90;;
52104;SDS011;38103;42.776;23.112;2023-09-12T05:15:02;15.20;;;5.00;;
52104;SDS011;38103;42.776;23.112;2023-09-12T05:17:28;13.10;;;4.53;;
52104;SDS011;38103;42.776;23.112;2023-09-12T05:19:53;11.55;;;4.55;;
52104;SDS011;38103;42.776;23.112;2023-09-12T05:22:19;11.60;;;4.43;;
52104;SDS011;38103;42.776;23.112;2023-09-12T05:24:45;11.57;;;4.75;;
52104;SDS011;38103;42.776;23.112;2023-09-12T05:27:11;12.40;;;4.20;;
52104;SDS011;38103;42.776;23.112;2023-09-12T05:29:36;13.85;;;4.60;;
52104;SDS011;38103;42.776;23.112;2023-09-12T05:32:03;11.57;;;3.90;;
52104;SDS011;38103;42.776;23.112;2023-09-12T05:34:29;15.38;;;4.97;;
52104;SDS011;38103;42.776;23.112;2023-09-12T05:36:56;19.63;;;4.50;;
52104;SDS011;38103;42.776;23.112;2023-09-12T05:39:21;14.10;;;4.38;;
52104;SDS011;38103;42.776;23.112;2023-09-12T05:41:47;11.05;;;4.00;;
52104;SDS011;38103;42.776;23.112;2023-09-12T05:44:12;11.25;;;3.40;;
52104;SDS011;38103;42.776;23.112;2023-09-12T05:46:42;9.18;;;3.72;;
52104;SDS011;38103;42.776;23.112;2023-09-12T05:49:08;15.15;;;3.90;;
52104;SDS011;38103;42.776;23.112;2023-09-12T05:51:33;11.85;;;4.15;;
52104;SDS011;38103;42.776;23.112;2023-09-12T05:53:59;17.85;;;5.18;;
52104;SDS011;38103;42.776;23.112;2023-09-12T05:56:26;13.63;;;4.20;;
52104;SDS011;38103;42.776;23.112;2023-09-12T05:58:51;15.82;;;4.50;;
52104;SDS011;38103;42.776;23.112;2023-09-12T06:01:17;11.57;;;3.97;;
52104;SDS011;38103;42.776;23.112;2023-09-12T06:03:42;9.15;;;3.50;;
52104;SDS011;38103;42.776;23.112;2023-09-12T06:06:08;11.65;;;3.97;;
52104;SDS011;38103;42.776;23.112;2023-09-12T06:08:33;10.85;;;3.90;;
52104;SDS011;38103;42.776;23.112;2023-09-12T06:10:58;11.98;;;4.03;;
52104;SDS011;38103;42.776;23.112;2023-09-12T06:13:24;13.00;;;3.85;;
52104;SDS011;38103;42.776;23.112;2023-09-12T06:15:49;9.13;;;3.50;;
52104;SDS011;38103;42.776;23.112;2023-09-12T06:18:15;11.77;;;3.97;;
52104;SDS011;38103;42.776;23.112;2023-09-12T06:20:40;13.18;;;4.35;;
52104;SDS011;38103;42.776;23.112;2023-09-12T06:23:07;16.45;;;3.67;;
52104;SDS011;38103;42.776;23.112;2023-09-12T06:25:32;15.40;;;3.80;;
52104;SDS011;38103;42.776;23.112;2023-09-12T06:27:59;14.27;;;4.00;;
52104;SDS011;38103;42.776;23.112;2023-09-12T06:30:24;14.73;;;4.03;;
52104;SDS011;38103;42.776;23.112;2023-09-12T06:32:49;10.93;;;3.80;;
52104;SDS011;38103;42.776;23.112;2023-09-12T06:35:15;15.10;;;3.85;;
52104;SDS011;38103;42.776;23.112;2023-09-12T06:37:40;11.65;;;3.88;;
52104;SDS011;38103;42.776;23.112;2023-09-12T06:40:06;14.80;;;4.03;;
52104;SDS011;38103;42.776;23.112;2023-09-12T06:42:32;11.88;;;4.07;;
52104;SDS011;38103;42.776;23.112;2023-09-12T06:44:58;16.85;;;4.05;;
52104;SDS011;38103;42.776;23.112;2023-09-12T06:47:23;12.30;;;4.07;;
52104;SDS011;38103;42.776;23.112;2023-09-12T06:49:48;11.82;;;3.83;;
52104;SDS011;38103;42.776;23.112;2023-09-12T06:52:14;12.50;;;3.35;;
52104;SDS011;38103;42.776;23.112;2023-09-12T06:54:39;9.57;;;3.40;;
52104;SDS011;38103;42.776;23.112;2023-09-12T06:57:04;9.95;;;3.42;;
52104;SDS011;38103;42.776;23.112;2023-09-12T06:59:30;13.32;;;3.30;;
52104;SDS011;38103;42.776;23.112;2023-09-12T07:01:55;10.18;;;3.33;;
52104;SDS011;38103;42.776;23.112;2023-09-12T07:04:21;11.25;;;3.42;;
52104;SDS011;38103;42.776;23.112;2023-09-12T07:06:46;10.57;;;3.50;;
52104;SDS011;38103;42.776;23.112;2023-09-12T07:09:12;8.82;;;3.30;;
52104;SDS011;38103;42.776;23.112;2023-09-12T07:11:40;15.25;;;3.75;;
52104;SDS011;38103;42.776;23.112;2023-09-12T07:14:06;11.32;;;3.60;;
52104;SDS011;38103;42.776;23.112;2023-09-12T07:16:31;9.98;;;3.50;;
52104;SDS011;38103;42.776;23.112;2023-09-12T07:18:57;11.20;;;3.60;;
52104;SDS011;38103;42.776;23.112;2023-09-12T07:21:23;15.00;;;3.58;;
52104;SDS011;38103;42.776;23.112;2023-09-12T07:23:48;11.68;;;3.50;;
52104;SDS011;38103;42.776;23.112;2023-09-12T07:26:14;11.02;;;3.42;;
52104;SDS011;38103;42.776;23.112;2023-09-12T07:28:40;12.55;;;3.90;;
52104;SDS011;38103;42.776;23.112;2023-09-12T07:31:06;14.55;;;3.35;;
52104;SDS011;38103;42.776;23.112;2023-09-12T07:33:31;10.00;;;3.58;;
52104;SDS011;38103;42.776;23.112;2023-09-12T07:35:57;11.85;;;3.60;;
52104;SDS011;38103;42.776;23.112;2023-09-12T07:38:24;11.45;;;3.78;;
52104;SDS011;38103;42.776;23.112;2023-09-12T07:40:50;12.75;;;3.33;;
52104;SDS011;38103;42.776;23.112;2023-09-12T07:43:15;16.17;;;3.58;;
52104;SDS011;38103;42.776;23.112;2023-09-12T07:45:41;12.40;;;3.60;;
52104;SDS011;38103;42.776;23.112;2023-09-12T07:48:07;13.55;;;3.47;;
52104;SDS011;38103;42.776;23.112;2023-09-12T07:50:34;9.50;;;3.05;;
52104;SDS011;38103;42.776;23.112;2023-09-12T07:53:00;10.65;;;3.35;;
52104;SDS011;38103;42.776;23.112;2023-09-12T07:55:25;10.85;;;3.40;;
52104;SDS011;38103;42.776;23.112;2023-09-12T07:57:51;15.50;;;3.20;;
52104;SDS011;38103;42.776;23.112;2023-09-12T08:00:16;13.52;;;3.40;;
52104;SDS011;38103;42.776;23.112;2023-09-12T08:02:42;15.45;;;4.10;;
52104;SDS011;38103;42.776;23.112;2023-09-12T08:05:08;13.90;;;3.60;;
52104;SDS011;38103;42.776;23.112;2023-09-12T08:07:34;12.02;;;3.20;;
52104;SDS011;38103;42.776;23.112;2023-09-12T08:10:00;12.45;;;3.47;;
52104;SDS011;38103;42.776;23.112;2023-09-12T08:12:26;10.10;;;3.25;;
52104;SDS011;38103;42.776;23.112;2023-09-12T08:14:52;15.43;;;4.25;;
52104;SDS011;38103;42.776;23.112;2023-09-12T08:17:19;13.85;;;3.30;;
52104;SDS011;38103;42.776;23.112;2023-09-12T08:19:44;10.90;;;3.50;;
52104;SDS011;38103;42.776;23.112;2023-09-12T08:22:10;14.27;;;3.25;;
52104;SDS011;38103;42.776;23.112;2023-09-12T08:24:37;15.20;;;3.17;;
52104;SDS011;38103;42.776;23.112;2023-09-12T08:27:03;9.23;;;3.08;;
52104;SDS011;38103;42.776;23.112;2023-09-12T08:29:28;18.88;;;3.97;;
52104;SDS011;38103;42.776;23.112;2023-09-12T08:31:55;12.30;;;3.15;;
52104;SDS011;38103;42.776;23.112;2023-09-12T08:34:20;16.48;;;3.35;;
52104;SDS011;38103;42.776;23.112;2023-09-12T08:36:46;14.52;;;3.20;;
52104;SDS011;38103;42.776;23.112;2023-09-12T08:39:15;16.65;;;3.83;;
52104;SDS011;38103;42.776;23.112;2023-09-12T08:41:42;11.05;;;3.10;;
52104;SDS011;38103;42.776;23.112;2023-09-12T08:44:08;13.77;;;3.60;;
52104;SDS011;38103;42.776;23.112;2023-09-12T08:46:34;17.52;;;3.60;;
52104;SDS011;38103;42.776;23.112;2023-09-12T08:49:00;15.15;;;3.53;;
52104;SDS011;38103;42.776;23.112;2023-09-12T08:51:25;15.68;;;3.60;;
52104;SDS011;38103;42.776;23.112;2023-09-12T08:53:51;14.75;;;3.40;;
52104;SDS011;38103;42.776;23.112;2023-09-12T08:56:20;13.93;;;3.22;;
52104;SDS011;38103;42.776;23.112;2023-09-12T08:58:45;16.92;;;3.67;;
52104;SDS011;38103;42.776;23.112;2023-09-12T09:01:12;10.40;;;3.53;;
52104;SDS011;38103;42.776;23.112;2023-09-12T09:03:39;11.82;;;3.60;;
52104;SDS011;38103;42.776;23.112;2023-09-12T09:06:06;14.25;;;3.85;;
52104;SDS011;38103;42.776;23.112;2023-09-12T09:08:34;12.02;;;3.33;;
52104;SDS011;38103;42.776;23.112;2023-09-12T09:11:00;10.07;;;3.58;;
52104;SDS011;38103;42.776;23.112;2023-09-12T09:13:30;17.60;;;3.45;;
52104;SDS011;38103;42.776;23.112;2023-09-12T09:16:09;12.43;;;3.55;;
52104;SDS011;38103;42.776;23.112;2023-09-12T09:21:36;9.90;;;3.38;;
52104;SDS011;38103;42.776;23.112;2023-09-12T09:24:10;13.35;;;3.50;;
52104;SDS011;38103;42.776;23.112;2023-09-12T09:26:47;10.00;;;3.45;;
52104;SDS011;38103;42.776;23.112;2023-09-12T09:29:20;12.23;;;3.50;;
52104;SDS011;38103;42.776;23.112;2023-09-12T09:31:47;15.13;;;3.20;;
52104;SDS011;38103;42.776;23.112;2023-09-12T09:34:20;10.23;;;3.25;;
52104;SDS011;38103;42.776;23.112;2023-09-12T09:39:13;13.75;;;3.53;;
52104;SDS011;38103;42.776;23.112;2023-09-12T09:41:40;11.95;;;3.05;;
52104;SDS011;38103;42.776;23.112;2023-09-12T09:44:09;9.60;;;2.92;;
52104;SDS011;38103;42.776;23.112;2023-09-12T09:46:35;10.48;;;3.38;;
52104;SDS011;38103;42.776;23.112;2023-09-12T09:49:02;9.70;;;3.00;;
52104;SDS011;38103;42.776;23.112;2023-09-12T09:51:27;11.93;;;3.30;;
52104;SDS011;38103;42.776;23.112;2023-09-12T09:53:56;14.40;;;3.47;;
52104;SDS011;38103;42.776;23.112;2023-09-12T09:56:23;9.95;;;3.13;;
52104;SDS011;38103;42.776;23.112;2023-09-12T10:01:18;12.15;;;3.15;;
52104;SDS011;38103;42.776;23.112;2023-09-12T10:03:46;10.35;;;3.35;;
52104;SDS011;38103;42.776;23.112;2023-09-12T10:06:13;11.82;;;3.35;;
52104;SDS011;38103;42.776;23.112;2023-09-12T10:08:41;11.13;;;3.60;;
52104;SDS011;38103;42.776;23.112;2023-09-12T10:11:09;12.55;;;3.50;;
52104;SDS011;38103;42.776;23.112;2023-09-12T10:13:35;9.30;;;3.13;;
52104;SDS011;38103;42.776;23.112;2023-09-12T10:16:02;10.50;;;3.50;;
52104;SDS011;38103;42.776;23.112;2023-09-12T10:18:30;13.10;;;3.33;;
52104;SDS011;38103;42.776;23.112;2023-09-12T10:21:07;13.00;;;3.38;;
52104;SDS011;38103;42.776;23.112;2023-09-12T10:23:44;10.43;;;3.35;;
52104;SDS011;38103;42.776;23.112;2023-09-12T10:26:11;11.15;;;3.38;;
52104;SDS011;38103;42.776;23.112;2023-09-12T10:28:39;11.27;;;3.40;;
52104;SDS011;38103;42.776;23.112;2023-09-12T10:31:05;9.02;;;3.33;;
52104;SDS011;38103;42.776;23.112;2023-09-12T10:33:33;12.95;;;4.25;;
52104;SDS011;38103;42.776;23.112;2023-09-12T10:35:58;10.32;;;3.33;;
52104;SDS011;38103;42.776;23.112;2023-09-12T10:38:26;11.68;;;3.42;;
52104;SDS011;38103;42.776;23.112;2023-09-12T10:40:53;11.38;;;3.50;;
52104;SDS011;38103;42.776;23.112;2023-09-12T10:43:19;11.30;;;3.60;;
52104;SDS011;38103;42.776;23.112;2023-09-12T10:45:46;10.95;;;3.35;;
52104;SDS011;38103;42.776;23.112;2023-09-12T10:48:13;11.88;;;3.33;;
52104;SDS011;38103;42.776;23.112;2023-09-12T10:50:39;11.75;;;3.65;;
52104;SDS011;38103;42.776;23.112;2023-09-12T10:53:11;15.43;;;3.35;;
52104;SDS011;38103;42.776;23.112;2023-09-12T10:55:38;15.35;;;3.80;;
52104;SDS011;38103;42.776;23.112;2023-09-12T10:58:09;12.40;;;3.28;;
52104;SDS011;38103;42.776;23.112;2023-09-12T11:00:37;13.80;;;3.60;;
52104;SDS011;38103;42.776;23.112;2023-09-12T11:05:54;12.82;;;3.08;;
52104;SDS011;38103;42.776;23.112;2023-09-12T11:08:21;11.23;;;3.45;;
52104;SDS011;38103;42.776;23.112;2023-09-12T11:13:44;14.13;;;3.47;;
52104;SDS011;38103;42.776;23.112;2023-09-12T11:16:11;11.65;;;3.65;;
52104;SDS011;38103;42.776;23.112;2023-09-12T11:21:37;14.30;;;3.70;;
52104;SDS011;38103;42.776;23.112;2023-09-12T11:24:03;11.80;;;3.33;;
52104;SDS011;38103;42.776;23.112;2023-09-12T11:26:29;13.05;;;3.20;;
52104;SDS011;38103;42.776;23.112;2023-09-12T11:28:54;13.70;;;3.45;;
52104;SDS011;38103;42.776;23.112;2023-09-12T11:31:26;13.88;;;3.63;;
52104;SDS011;38103;42.776;23.112;2023-09-12T11:33:52;18.13;;;3.55;;
52104;SDS011;38103;42.776;23.112;2023-09-12T11:36:18;12.18;;;3.65;;
52104;SDS011;38103;42.776;23.112;2023-09-12T11:38:44;10.88;;;3.40;;
52104;SDS011;38103;42.776;23.112;2023-09-12T11:41:14;14.38;;;3.17;;
52104;SDS011;38103;42.776;23.112;2023-09-12T11:44:06;15.57;;;3.80;;
52104;SDS011;38103;42.776;23.112;2023-09-12T11:46:32;10.57;;;3.15;;
52104;SDS011;38103;42.776;23.112;2023-09-12T11:48:57;13.65;;;3.60;;
52104;SDS011;38103;42.776;23.112;2023-09-12T11:51:26;10.20;;;2.92;;
52104;SDS011;38103;42.776;23.112;2023-09-12T11:53:52;12.70;;;3.40;;
52104;SDS011;38103;42.776;23.112;2023-09-12T11:56:18;11.75;;;3.22;;
52104;SDS011;38103;42.776;23.112;2023-09-12T11:58:44;11.57;;;3.30;;
52104;SDS011;38103;42.776;23.112;2023-09-12T12:01:11;11.25;;;3.35;;
52104;SDS011;38103;42.776;23.112;2023-09-12T12:03:37;13.50;;;3.22;;
52104;SDS011;38103;42.776;23.112;2023-09-12T12:06:03;14.75;;;3.38;;
52104;SDS011;38103;42.776;23.112;2023-09-12T12:08:29;15.05;;;3.40;;
52104;SDS011;38103;42.776;23.112;2023-09-12T12:10:56;12.45;;;3.25;;
52104;SDS011;38103;42.776;23.112;2023-09-12T12:13:23;16.45;;;3.80;;
52104;SDS011;38103;42.776;23.112;2023-09-12T12:15:49;13.15;;;3.28;;
52104;SDS011;38103;42.776;23.112;2023-09-12T12:18:14;12.18;;;3.05;;
52104;SDS011;38103;42.776;23.112;2023-09-12T12:20:40;14.50;;;3.10;;
52104;SDS011;38103;42.776;23.112;2023-09-12T12:23:07;11.15;;;2.92;;
52104;SDS011;38103;42.776;23.112;2023-09-12T12:25:32;10.45;;;3.35;;
52104;SDS011;38103;42.776;23.112;2023-09-12T12:27:59;11.88;;;3.17;;
52104;SDS011;38103;42.776;23.112;2023-09-12T12:30:24;16.33;;;3.67;;
52104;SDS011;38103;42.776;23.112;2023-09-12T12:32:50;12.48;;;2.88;;
52104;SDS011;38103;42.776;23.112;2023-09-12T12:35:19;12.90;;;2.85;;
52104;SDS011;38103;42.776;23.112;2023-09-12T12:37:47;12.75;;;3.35;;
52104;SDS011;38103;42.776;23.112;2023-09-12T12:40:14;12.02;;;3.10;;
52104;SDS011;38103;42.776;23.112;2023-09-12T12:42:40;11.48;;;2.90;;
52104;SDS011;38103;42.776;23.112;2023-09-12T12:47:40;15.95;;;3.40;;
52104;SDS011;38103;42.776;23.112;2023-09-12T12:50:13;13.70;;;3.33;;
52104;SDS011;38103;42.776;23.112;2023-09-12T12:52:40;13.73;;;3.28;;
52104;SDS011;38103;42.776;23.112;2023-09-12T12:55:06;10.23;;;2.70;;
52104;SDS011;38103;42.776;23.112;2023-09-12T12:57:38;12.98;;;3.10;;
52104;SDS011;38103;42.776;23.112;2023-09-12T13:00:11;9.70;;;3.00;;
52104;SDS011;38103;42.776;23.112;2023-09-12T13:02:41;11.63;;;3.08;;
52104;SDS011;38103;42.776;23.112;2023-09-12T13:05:20;13.65;;;3.17;;
52104;SDS011;38103;42.776;23.112;2023-09-12T13:07:50;12.70;;;3.20;;
52104;SDS011;38103;42.776;23.112;2023-09-12T13:10:16;14.82;;;3.05;;
52104;SDS011;38103;42.776;23.112;2023-09-12T13:12:41;11.63;;;3.13;;
52104;SDS011;38103;42.776;23.112;2023-09-12T13:15:10;11.93;;;3.55;;
52104;SDS011;38103;42.776;23.112;2023-09-12T13:17:36;10.73;;;2.97;;
52104;SDS011;38103;42.776;23.112;2023-09-12T13:20:01;10.75;;;3.30;;
52104;SDS011;38103;42.776;23.112;2023-09-12T13:22:27;15.02;;;2.90;;
52104;SDS011;38103;42.776;23.112;2023-09-12T13:24:53;9.88;;;2.70;;
52104;SDS011;38103;42.776;23.112;2023-09-12T13:27:18;14.85;;;3.38;;
52104;SDS011;38103;42.776;23.112;2023-09-12T13:29:43;11.63;;;3.13;;
52104;SDS011;38103;42.776;23.112;2023-09-12T13:32:09;11.48;;;3.00;;
52104;SDS011;38103;42.776;23.112;2023-09-12T13:34:35;17.90;;;3.22;;
52104;SDS011;38103;42.776;23.112;2023-09-12T13:37:00;15.82;;;3.50;;
52104;SDS011;38103;42.776;23.112;2023-09-12T13:39:26;11.70;;;3.05;;
52104;SDS011;38103;42.776;23.112;2023-09-12T13:41:51;11.18;;;2.80;;
52104;SDS011;38103;42.776;23.112;2023-09-12T13:44:17;12.38;;;3.40;;
52104;SDS011;38103;42.776;23.112;2023-09-12T13:46:42;13.30;;;3.05;;
52104;SDS011;38103;42.776;23.112;2023-09-12T13:49:11;14.82;;;3.53;;
52104;SDS011;38103;42.776;23.112;2023-09-12T13:51:36;10.32;;;2.83;;
52104;SDS011;38103;42.776;23.112;2023-09-12T13:54:01;14.77;;;3.08;;
52104;SDS011;38103;42.776;23.112;2023-09-12T13:56:27;11.13;;;3.28;;
52104;SDS011;38103;42.776;23.112;2023-09-12T13:58:53;12.45;;;2.88;;
52104;SDS011;38103;42.776;23.112;2023-09-12T14:01:18;16.73;;;3.45;;
52104;SDS011;38103;42.776;23.112;2023-09-12T14:03:45;11.23;;;3.45;;
52104;SDS011;38103;42.776;23.112;2023-09-12T14:06:10;10.95;;;3.40;;
52104;SDS011;38103;42.776;23.112;2023-09-12T14:08:35;11.45;;;3.42;;
52104;SDS011;38103;42.776;23.112;2023-09-12T14:11:01;9.63;;;3.20;;
52104;SDS011;38103;42.776;23.112;2023-09-12T14:13:26;11.65;;;3.28;;
52104;SDS011;38103;42.776;23.112;2023-09-12T14:15:51;13.15;;;3.22;;
52104;SDS011;38103;42.776;23.112;2023-09-12T14:18:17;12.70;;;2.90;;
52104;SDS011;38103;42.776;23.112;2023-09-12T14:20:42;11.90;;;3.00;;
52104;SDS011;38103;42.776;23.112;2023-09-12T14:23:08;11.75;;;3.20;;
52104;SDS011;38103;42.776;23.112;2023-09-12T14:25:33;13.57;;;3.30;;
52104;SDS011;38103;42.776;23.112;2023-09-12T14:27:58;13.90;;;3.10;;
52104;SDS011;38103;42.776;23.112;2023-09-12T14:30:24;12.20;;;3.47;;
52104;SDS011;38103;42.776;23.112;2023-09-12T14:32:58;11.35;;;2.92;;
52104;SDS011;38103;42.776;23.112;2023-09-12T14:35:24;11.13;;;3.40;;
52104;SDS011;38103;42.776;23.112;2023-09-12T14:37:49;11.15;;;3.08;;
52104;SDS011;38103;42.776;23.112;2023-09-12T14:40:15;10.05;;;3.00;;
52104;SDS011;38103;42.776;23.112;2023-09-12T14:42:42;13.73;;;3.40;;